sensor_id;sensor_type;location;lat;lon;timestamp;pressure;altitude;pressure_sealevel;temperature;humidity
11011;BME280;5558;42.702;23.178;2023-11-21T00:02:20;93479.09;;;3.42;100.00
11011;BME280;5558;42.702;23.178;2023-11-21T00:04:47;93475.03;;;3.58;100.00
11011;BME280;5558;42.702;23.178;2023-11-21T00:07:15;93473.09;;;3.77;100.00
11011;BME280;5558;42.702;23.178;2023-11-21T00:09:42;93478.44;;;3.82;100.00
11011;BME280;5558;42.702;23.178;2023-11-21T00:12:09;93474.03;;;3.82;100.00
11011;BME280;5558;42.702;23.178;2023-11-21T00:14:35;93470.94;;;3.85;100.00
11011;BME280;5558;42.702;23.178;2023-11-21T00:17:02;93473.44;;;3.92;100.00
11011;BME280;5558;42.702;23.178;2023-11-21T00:19:29;93474.25;;;3.92;100.00
11011;BME280;5558;42.702;23.178;2023-11-21T00:21:56;93472.84;;;4.01;100.00
11011;BME280;5558;42.702;23.178;2023-11-21T00:24:25;93473.75;;;4.07;100.00
11011;BME280;5558;42.702;23.178;2023-11-21T00:26:51;93472.28;;;4.22;100.00
11011;BME280;5558;42.702;23.178;2023-11-21T00:29:18;93471.34;;;4.28;100.00
11011;BME280;5558;42.702;23.178;2023-11-21T00:31:45;93463.47;;;4.28;100.00
11011;BME280;5558;42.702;23.178;2023-11-21T00:34:12;93467.94;;;4.28;100.00
11011;BME280;5558;42.702;23.178;2023-11-21T00:36:39;93470.78;;;4.26;100.00
11011;BME280;5558;42.702;23.178;2023-11-21T00:39:06;93470.56;;;4.28;100.00
11011;BME280;5558;42.702;23.178;2023-11-21T00:41:35;93473.31;;;3.98;100.00
11011;BME280;5558;42.702;23.178;2023-11-21T00:44:03;93478.44;;;4.05;100.00
11011;BME280;5558;42.702;23.178;2023-11-21T00:46:29;93477.53;;;4.11;100.00
11011;BME280;5558;42.702;23.178;2023-11-21T00:48:56;93470.78;;;4.15;100.00
11011;BME280;5558;42.702;23.178;2023-11-21T00:51:23;93469.09;;;4.09;100.00
11011;BME280;5558;42.702;23.178;2023-11-21T00:53:50;93460.69;;;4.07;100.00
11011;BME280;5558;42.702;23.178;2023-11-21T00:56:16;93453.63;;;4.07;100.00
11011;BME280;5558;42.702;23.178;2023-11-21T00:58:44;93451.00;;;4.07;100.00
11011;BME280;5558;42.702;23.178;2023-11-21T01:01:15;93453.63;;;4.07;100.00
11011;BME280;5558;42.702;23.178;2023-11-21T01:03:41;93449.66;;;3.93;100.00
11011;BME280;5558;42.702;23.178;2023-11-21T01:06:08;93442.13;;;3.97;100.00
11011;BME280;5558;42.702;23.178;2023-11-21T01:08:35;93439.06;;;4.00;100.00
11011;BME280;5558;42.702;23.178;2023-11-21T01:11:02;93434.75;;;3.94;100.00
11011;BME280;5558;42.702;23.178;2023-11-21T01:13:30;93450.66;;;3.81;100.00
11011;BME280;5558;42.702;23.178;2023-11-21T01:15:58;93450.78;;;3.74;100.00
11011;BME280;5558;42.702;23.178;2023-11-21T01:18:24;93452.28;;;3.82;100.00
11011;BME280;5558;42.702;23.178;2023-11-21T01:20:51;93448.75;;;3.76;100.00
11011;BME280;5558;42.702;23.178;2023-11-21T01:23:19;93445.44;;;3.81;100.00
11011;BME280;5558;42.702;23.178;2023-11-21T01:25:46;93452.03;;;3.83;100.00
11011;BME280;5558;42.702;23.178;2023-11-21T01:28:13;93443.84;;;3.80;100.00
11011;BME280;5558;42.702;23.178;2023-11-21T01:30:40;93443.25;;;3.89;100.00
11011;BME280;5558;42.702;23.178;2023-11-21T01:33:08;93448.63;;;3.71;100.00
11011;BME280;5558;42.702;23.178;2023-11-21T01:35:35;93458.66;;;3.86;100.00
11011;BME280;5558;42.702;23.178;2023-11-21T01:38:01;93461.72;;;3.71;100.00
11011;BME280;5558;42.702;23.178;2023-11-21T01:40:29;93455.13;;;3.80;100.00
11011;BME280;5558;42.702;23.178;2023-11-21T01:42:56;93446.22;;;3.81;100.00
11011;BME280;5558;42.702;23.178;2023-11-21T01:45:22;93439.06;;;3.88;100.00
11011;BME280;5558;42.702;23.178;2023-11-21T01:47:50;93430.97;;;3.90;100.00
11011;BME280;5558;42.702;23.178;2023-11-21T01:50:18;93434.03;;;3.98;100.00
11011;BME280;5558;42.702;23.178;2023-11-21T01:52:46;93438.25;;;4.11;100.00
11011;BME280;5558;42.702;23.178;2023-11-21T01:55:14;93437.47;;;3.99;100.00
11011;BME280;5558;42.702;23.178;2023-11-21T01:57:43;93447.81;;;4.05;100.00
11011;BME280;5558;42.702;23.178;2023-11-21T02:00:11;93444.06;;;4.01;100.00
11011;BME280;5558;42.702;23.178;2023-11-21T02:02:42;93449.75;;;3.98;100.00
11011;BME280;5558;42.702;23.178;2023-11-21T02:05:09;93453.97;;;3.88;100.00
11011;BME280;5558;42.702;23.178;2023-11-21T02:07:39;93449.22;;;3.61;100.00
11011;BME280;5558;42.702;23.178;2023-11-21T02:10:07;93443.41;;;3.71;100.00
11011;BME280;5558;42.702;23.178;2023-11-21T02:12:34;93433.97;;;3.70;100.00
11011;BME280;5558;42.702;23.178;2023-11-21T02:15:00;93439.53;;;3.73;100.00
11011;BME280;5558;42.702;23.178;2023-11-21T02:17:28;93443.03;;;3.79;100.00
11011;BME280;5558;42.702;23.178;2023-11-21T02:19:55;93434.97;;;3.69;100.00
11011;BME280;5558;42.702;23.178;2023-11-21T02:22:22;93416.66;;;3.57;100.00
11011;BME280;5558;42.702;23.178;2023-11-21T02:24:53;93442.03;;;3.68;100.00
11011;BME280;5558;42.702;23.178;2023-11-21T02:27:19;93432.25;;;3.64;100.00
11011;BME280;5558;42.702;23.178;2023-11-21T02:29:48;93433.28;;;3.63;100.00
11011;BME280;5558;42.702;23.178;2023-11-21T02:32:15;93428.03;;;3.63;100.00
11011;BME280;5558;42.702;23.178;2023-11-21T02:34:44;93423.63;;;3.63;100.00
11011;BME280;5558;42.702;23.178;2023-11-21T02:37:11;93433.63;;;3.66;100.00
11011;BME280;5558;42.702;23.178;2023-11-21T02:39:37;93435.09;;;3.62;100.00
11011;BME280;5558;42.702;23.178;2023-11-21T02:42:06;93431.47;;;3.63;100.00
11011;BME280;5558;42.702;23.178;2023-11-21T02:44:33;93430.53;;;3.58;100.00
11011;BME280;5558;42.702;23.178;2023-11-21T02:47:00;93434.16;;;3.57;100.00
11011;BME280;5558;42.702;23.178;2023-11-21T02:49:26;93428.38;;;3.55;100.00
11011;BME280;5558;42.702;23.178;2023-11-21T02:51:53;93436.75;;;3.22;100.00
11011;BME280;5558;42.702;23.178;2023-11-21T02:54:21;93439.16;;;3.24;100.00
11011;BME280;5558;42.702;23.178;2023-11-21T02:56:48;93429.72;;;3.23;100.00
11011;BME280;5558;42.702;23.178;2023-11-21T02:59:17;93422.88;;;3.22;100.00
11011;BME280;5558;42.702;23.178;2023-11-21T03:01:45;93422.31;;;3.20;100.00
11011;BME280;5558;42.702;23.178;2023-11-21T03:04:12;93426.31;;;3.22;100.00
11011;BME280;5558;42.702;23.178;2023-11-21T03:06:43;93425.25;;;3.12;100.00
11011;BME280;5558;42.702;23.178;2023-11-21T03:09:09;93425.25;;;3.12;100.00
11011;BME280;5558;42.702;23.178;2023-11-21T03:11:37;93429.34;;;3.08;100.00
11011;BME280;5558;42.702;23.178;2023-11-21T03:14:04;93434.97;;;2.93;100.00
11011;BME280;5558;42.702;23.178;2023-11-21T03:16:32;93436.38;;;2.66;100.00
11011;BME280;5558;42.702;23.178;2023-11-21T03:18:59;93440.00;;;2.65;100.00
11011;BME280;5558;42.702;23.178;2023-11-21T03:21:25;93438.03;;;2.79;100.00
11011;BME280;5558;42.702;23.178;2023-11-21T03:23:52;93444.03;;;2.79;100.00
11011;BME280;5558;42.702;23.178;2023-11-21T03:26:19;93449.13;;;2.74;100.00
11011;BME280;5558;42.702;23.178;2023-11-21T03:28:46;93446.16;;;2.71;100.00
11011;BME280;5558;42.702;23.178;2023-11-21T03:31:12;93443.59;;;2.53;100.00
11011;BME280;5558;42.702;23.178;2023-11-21T03:33:40;93452.16;;;2.23;100.00
11011;BME280;5558;42.702;23.178;2023-11-21T03:36:08;93447.22;;;2.33;100.00
11011;BME280;5558;42.702;23.178;2023-11-21T03:38:35;93436.22;;;2.31;100.00
11011;BME280;5558;42.702;23.178;2023-11-21T03:41:02;93415.47;;;2.66;100.00
11011;BME280;5558;42.702;23.178;2023-11-21T03:43:29;93418.25;;;2.83;100.00
11011;BME280;5558;42.702;23.178;2023-11-21T03:45:55;93413.50;;;2.91;100.00
11011;BME280;5558;42.702;23.178;2023-11-21T03:48:22;93418.56;;;3.04;100.00
11011;BME280;5558;42.702;23.178;2023-11-21T03:50:50;93389.56;;;2.94;100.00
11011;BME280;5558;42.702;23.178;2023-11-21T03:53:17;93414.59;;;3.25;100.00
11011;BME280;5558;42.702;23.178;2023-11-21T03:55:44;93406.31;;;3.28;100.00
11011;BME280;5558;42.702;23.178;2023-11-21T03:58:11;93405.97;;;3.47;100.00
11011;BME280;5558;42.702;23.178;2023-11-21T04:00:37;93400.38;;;3.67;100.00
11011;BME280;5558;42.702;23.178;2023-11-21T04:03:04;93397.56;;;3.68;100.00
11011;BME280;5558;42.702;23.178;2023-11-21T04:05:31;93395.81;;;3.74;100.00
11011;BME280;5558;42.702;23.178;2023-11-21T04:07:59;93357.75;;;3.55;100.00
11011;BME280;5558;42.702;23.178;2023-11-21T04:10:26;93401.41;;;3.78;100.00
11011;BME280;5558;42.702;23.178;2023-11-21T04:12:52;93399.38;;;3.45;100.00
11011;BME280;5558;42.702;23.178;2023-11-21T04:15:19;93403.81;;;3.21;100.00
11011;BME280;5558;42.702;23.178;2023-11-21T04:17:46;93407.53;;;3.02;100.00
11011;BME280;5558;42.702;23.178;2023-11-21T04:20:13;93413.63;;;2.96;100.00
11011;BME280;5558;42.702;23.178;2023-11-21T04:22:40;93413.56;;;3.14;100.00
11011;BME280;5558;42.702;23.178;2023-11-21T04:25:10;93410.84;;;3.09;100.00
11011;BME280;5558;42.702;23.178;2023-11-21T04:27:38;93414.56;;;3.13;100.00
11011;BME280;5558;42.702;23.178;2023-11-21T04:30:06;93420.72;;;3.19;100.00
11011;BME280;5558;42.702;23.178;2023-11-21T04:32:35;93415.50;;;3.30;100.00
11011;BME280;5558;42.702;23.178;2023-11-21T04:35:01;93421.31;;;3.32;100.00
11011;BME280;5558;42.702;23.178;2023-11-21T04:37:29;93413.69;;;3.08;100.00
11011;BME280;5558;42.702;23.178;2023-11-21T04:39:56;93415.84;;;3.22;100.00
11011;BME280;5558;42.702;23.178;2023-11-21T04:42:24;93413.22;;;3.22;100.00
11011;BME280;5558;42.702;23.178;2023-11-21T04:44:51;93379.22;;;2.99;100.00
11011;BME280;5558;42.702;23.178;2023-11-21T04:47:17;93430.59;;;3.17;100.00
11011;BME280;5558;42.702;23.178;2023-11-21T04:49:46;93434.72;;;3.13;100.00
11011;BME280;5558;42.702;23.178;2023-11-21T04:52:13;93398.53;;;2.98;100.00
11011;BME280;5558;42.702;23.178;2023-11-21T04:54:40;93423.44;;;3.12;100.00
11011;BME280;5558;42.702;23.178;2023-11-21T04:57:06;93422.19;;;3.15;100.00
11011;BME280;5558;42.702;23.178;2023-11-21T04:59:35;93428.91;;;3.22;100.00
11011;BME280;5558;42.702;23.178;2023-11-21T05:02:01;93432.00;;;3.31;100.00
11011;BME280;5558;42.702;23.178;2023-11-21T05:04:28;93394.56;;;3.07;100.00
11011;BME280;5558;42.702;23.178;2023-11-21T05:06:55;93417.66;;;3.33;100.00
11011;BME280;5558;42.702;23.178;2023-11-21T05:09:22;93424.50;;;3.34;100.00
11011;BME280;5558;42.702;23.178;2023-11-21T05:11:48;93413.69;;;3.19;100.00
11011;BME280;5558;42.702;23.178;2023-11-21T05:14:15;93413.91;;;3.18;100.00
11011;BME280;5558;42.702;23.178;2023-11-21T05:16:45;93415.97;;;3.27;100.00
11011;BME280;5558;42.702;23.178;2023-11-21T05:19:12;93406.84;;;3.30;100.00
11011;BME280;5558;42.702;23.178;2023-11-21T05:21:39;93410.16;;;3.37;100.00
11011;BME280;5558;42.702;23.178;2023-11-21T05:24:06;93417.78;;;3.38;100.00
11011;BME280;5558;42.702;23.178;2023-11-21T05:26:33;93425.28;;;3.35;100.00
11011;BME280;5558;42.702;23.178;2023-11-21T05:29:00;93424.97;;;3.31;100.00
11011;BME280;5558;42.702;23.178;2023-11-21T05:31:26;93426.19;;;3.29;100.00
11011;BME280;5558;42.702;23.178;2023-11-21T05:33:55;93431.88;;;3.26;100.00
11011;BME280;5558;42.702;23.178;2023-11-21T05:36:22;93429.25;;;3.26;100.00
11011;BME280;5558;42.702;23.178;2023-11-21T05:38:49;93421.84;;;3.11;100.00
11011;BME280;5558;42.702;23.178;2023-11-21T05:41:16;93423.91;;;3.21;100.00
11011;BME280;5558;42.702;23.178;2023-11-21T05:43:42;93430.97;;;3.32;100.00
11011;BME280;5558;42.702;23.178;2023-11-21T05:46:09;93419.03;;;3.47;100.00
11011;BME280;5558;42.702;23.178;2023-11-21T05:48:36;93419.50;;;3.67;100.00
11011;BME280;5558;42.702;23.178;2023-11-21T05:51:06;93416.75;;;3.74;100.00
11011;BME280;5558;42.702;23.178;2023-11-21T05:53:33;93420.41;;;3.85;100.00
11011;BME280;5558;42.702;23.178;2023-11-21T05:56:00;93412.09;;;3.88;100.00
11011;BME280;5558;42.702;23.178;2023-11-21T05:58:27;93419.91;;;3.99;100.00
11011;BME280;5558;42.702;23.178;2023-11-21T06:00:53;93419.00;;;4.05;100.00
11011;BME280;5558;42.702;23.178;2023-11-21T06:03:20;93416.75;;;4.09;100.00
11011;BME280;5558;42.702;23.178;2023-11-21T06:05:48;93422.75;;;4.21;100.00
11011;BME280;5558;42.702;23.178;2023-11-21T06:08:16;93422.84;;;4.26;100.00
11011;BME280;5558;42.702;23.178;2023-11-21T06:10:44;93430.25;;;4.29;100.00
11011;BME280;5558;42.702;23.178;2023-11-21T06:13:14;93432.84;;;4.29;100.00
11011;BME280;5558;42.702;23.178;2023-11-21T06:15:41;93434.88;;;4.38;100.00
11011;BME280;5558;42.702;23.178;2023-11-21T06:18:08;93434.41;;;4.53;100.00
11011;BME280;5558;42.702;23.178;2023-11-21T06:20:36;93434.81;;;4.61;100.00
11011;BME280;5558;42.702;23.178;2023-11-21T06:23:03;93444.69;;;4.71;100.00
11011;BME280;5558;42.702;23.178;2023-11-21T06:25:32;93438.06;;;4.80;100.00
11011;BME280;5558;42.702;23.178;2023-11-21T06:28:01;93442.03;;;4.82;100.00
11011;BME280;5558;42.702;23.178;2023-11-21T06:30:28;93427.38;;;4.70;100.00
11011;BME280;5558;42.702;23.178;2023-11-21T06:32:55;93447.09;;;5.01;100.00
11011;BME280;5558;42.702;23.178;2023-11-21T06:35:22;93445.59;;;5.21;100.00
11011;BME280;5558;42.702;23.178;2023-11-21T06:37:49;93454.84;;;5.40;100.00
11011;BME280;5558;42.702;23.178;2023-11-21T06:40:16;93416.38;;;5.29;100.00
11011;BME280;5558;42.702;23.178;2023-11-21T06:42:45;93456.38;;;5.69;100.00
11011;BME280;5558;42.702;23.178;2023-11-21T06:45:12;93452.94;;;5.85;100.00
11011;BME280;5558;42.702;23.178;2023-11-21T06:47:40;93454.53;;;6.03;100.00
11011;BME280;5558;42.702;23.178;2023-11-21T06:50:07;93457.94;;;6.20;100.00
11011;BME280;5558;42.702;23.178;2023-11-21T06:52:34;93457.88;;;6.37;100.00
11011;BME280;5558;42.702;23.178;2023-11-21T06:55:01;93459.91;;;6.51;100.00
11011;BME280;5558;42.702;23.178;2023-11-21T06:57:30;93465.31;;;6.61;100.00
11011;BME280;5558;42.702;23.178;2023-11-21T06:59:59;93460.69;;;6.52;100.00
11011;BME280;5558;42.702;23.178;2023-11-21T07:02:26;93463.63;;;6.55;100.00
11011;BME280;5558;42.702;23.178;2023-11-21T07:04:53;93462.97;;;6.65;100.00
11011;BME280;5558;42.702;23.178;2023-11-21T07:07:20;93463.69;;;6.60;100.00
11011;BME280;5558;42.702;23.178;2023-11-21T07:09:46;93450.88;;;6.42;100.00
11011;BME280;5558;42.702;23.178;2023-11-21T07:12:14;93447.06;;;6.33;100.00
11011;BME280;5558;42.702;23.178;2023-11-21T07:14:41;93443.22;;;6.41;100.00
11011;BME280;5558;42.702;23.178;2023-11-21T07:17:11;93450.19;;;6.52;100.00
11011;BME280;5558;42.702;23.178;2023-11-21T07:19:38;93452.94;;;6.40;100.00
11011;BME280;5558;42.702;23.178;2023-11-21T07:22:06;93459.72;;;5.81;100.00
11011;BME280;5558;42.702;23.178;2023-11-21T07:24:33;93458.34;;;5.79;100.00
11011;BME280;5558;42.702;23.178;2023-11-21T07:27:00;93451.75;;;5.93;100.00
11011;BME280;5558;42.702;23.178;2023-11-21T07:29:27;93448.41;;;5.97;100.00
11011;BME280;5558;42.702;23.178;2023-11-21T07:31:55;93447.91;;;6.00;100.00
11011;BME280;5558;42.702;23.178;2023-11-21T07:34:23;93457.06;;;6.14;100.00
11011;BME280;5558;42.702;23.178;2023-11-21T07:36:50;93456.00;;;6.32;100.00
11011;BME280;5558;42.702;23.178;2023-11-21T07:39:16;93448.78;;;6.44;100.00
11011;BME280;5558;42.702;23.178;2023-11-21T07:41:43;93461.06;;;6.60;100.00
11011;BME280;5558;42.702;23.178;2023-11-21T07:44:14;93450.06;;;6.63;100.00
11011;BME280;5558;42.702;23.178;2023-11-21T07:46:42;93455.00;;;6.38;100.00
11011;BME280;5558;42.702;23.178;2023-11-21T07:49:09;93448.25;;;5.87;100.00
11011;BME280;5558;42.702;23.178;2023-11-21T07:51:37;93444.19;;;5.96;100.00
11011;BME280;5558;42.702;23.178;2023-11-21T07:54:04;93442.09;;;6.15;100.00
11011;BME280;5558;42.702;23.178;2023-11-21T07:56:32;93447.91;;;6.17;100.00
11011;BME280;5558;42.702;23.178;2023-11-21T07:58:58;93444.75;;;5.98;100.00
11011;BME280;5558;42.702;23.178;2023-11-21T08:01:25;93442.16;;;6.20;100.00
11011;BME280;5558;42.702;23.178;2023-11-21T08:03:53;93438.31;;;6.28;100.00
11011;BME280;5558;42.702;23.178;2023-11-21T08:06:22;93436.72;;;6.27;100.00
11011;BME280;5558;42.702;23.178;2023-11-21T08:08:50;93440.53;;;6.36;100.00
11011;BME280;5558;42.702;23.178;2023-11-21T08:11:17;93437.34;;;6.55;100.00
11011;BME280;5558;42.702;23.178;2023-11-21T08:13:45;93437.63;;;6.80;100.00
11011;BME280;5558;42.702;23.178;2023-11-21T08:16:12;93439.44;;;7.01;100.00
11011;BME280;5558;42.702;23.178;2023-11-21T08:18:39;93405.00;;;7.03;100.00
11011;BME280;5558;42.702;23.178;2023-11-21T08:21:06;93438.59;;;7.49;100.00
11011;BME280;5558;42.702;23.178;2023-11-21T08:23:33;93439.78;;;7.68;100.00
11011;BME280;5558;42.702;23.178;2023-11-21T08:26:01;93436.94;;;7.75;100.00
11011;BME280;5558;42.702;23.178;2023-11-21T08:28:28;93424.13;;;7.88;100.00
11011;BME280;5558;42.702;23.178;2023-11-21T08:30:55;93432.88;;;7.94;100.00
11011;BME280;5558;42.702;23.178;2023-11-21T08:33:22;93434.22;;;7.96;100.00
11011;BME280;5558;42.702;23.178;2023-11-21T08:35:49;93428.41;;;7.94;100.00
11011;BME280;5558;42.702;23.178;2023-11-21T08:38:15;93428.78;;;7.71;100.00
11011;BME280;5558;42.702;23.178;2023-11-21T08:40:43;93427.03;;;7.55;100.00
11011;BME280;5558;42.702;23.178;2023-11-21T08:43:11;93433.34;;;7.49;100.00
11011;BME280;5558;42.702;23.178;2023-11-21T08:45:39;93421.78;;;7.55;100.00
11011;BME280;5558;42.702;23.178;2023-11-21T08:48:06;93428.78;;;7.71;100.00
11011;BME280;5558;42.702;23.178;2023-11-21T08:50:33;93420.94;;;7.81;100.00
11011;BME280;5558;42.702;23.178;2023-11-21T08:53:00;93418.44;;;8.01;100.00
11011;BME280;5558;42.702;23.178;2023-11-21T08:55:27;93413.00;;;7.76;100.00
11011;BME280;5558;42.702;23.178;2023-11-21T08:57:53;93413.22;;;7.75;100.00
11011;BME280;5558;42.702;23.178;2023-11-21T09:00:22;93396.91;;;7.73;100.00
11011;BME280;5558;42.702;23.178;2023-11-21T09:02:49;93401.13;;;7.74;100.00
11011;BME280;5558;42.702;23.178;2023-11-21T09:05:15;93395.38;;;7.45;100.00
11011;BME280;5558;42.702;23.178;2023-11-21T09:07:43;93381.66;;;7.43;100.00
11011;BME280;5558;42.702;23.178;2023-11-21T09:10:11;93386.16;;;7.47;100.00
11011;BME280;5558;42.702;23.178;2023-11-21T09:12:38;93387.22;;;7.47;100.00
11011;BME280;5558;42.702;23.178;2023-11-21T09:15:06;93376.91;;;7.40;100.00
11011;BME280;5558;42.702;23.178;2023-11-21T09:17:36;93347.88;;;7.30;100.00
11011;BME280;5558;42.702;23.178;2023-11-21T09:20:05;93339.03;;;7.46;100.00
11011;BME280;5558;42.702;23.178;2023-11-21T09:22:33;93345.41;;;7.18;100.00
11011;BME280;5558;42.702;23.178;2023-11-21T09:25:00;93351.31;;;7.30;100.00
11011;BME280;5558;42.702;23.178;2023-11-21T09:27:30;93346.53;;;7.27;100.00
11011;BME280;5558;42.702;23.178;2023-11-21T09:29:57;93341.03;;;7.66;100.00
11011;BME280;5558;42.702;23.178;2023-11-21T09:32:24;93338.81;;;7.94;100.00
11011;BME280;5558;42.702;23.178;2023-11-21T09:34:52;93329.78;;;8.27;100.00
11011;BME280;5558;42.702;23.178;2023-11-21T09:37:20;93312.91;;;8.33;100.00
11011;BME280;5558;42.702;23.178;2023-11-21T09:39:47;93317.94;;;8.34;100.00
11011;BME280;5558;42.702;23.178;2023-11-21T09:42:17;93265.97;;;8.30;100.00
11011;BME280;5558;42.702;23.178;2023-11-21T09:44:53;93287.38;;;8.48;100.00
11011;BME280;5558;42.702;23.178;2023-11-21T09:47:22;93272.81;;;8.31;100.00
11011;BME280;5558;42.702;23.178;2023-11-21T09:49:49;93278.19;;;8.66;100.00
11011;BME280;5558;42.702;23.178;2023-11-21T09:52:22;93288.78;;;8.86;100.00
11011;BME280;5558;42.702;23.178;2023-11-21T09:54:52;93281.09;;;8.75;100.00
11011;BME280;5558;42.702;23.178;2023-11-21T09:57:20;93246.47;;;8.41;100.00
11011;BME280;5558;42.702;23.178;2023-11-21T09:59:51;93281.06;;;8.64;100.00
11011;BME280;5558;42.702;23.178;2023-11-21T10:02:22;93284.78;;;8.63;100.00
11011;BME280;5558;42.702;23.178;2023-11-21T10:04:51;93284.00;;;8.78;100.00
11011;BME280;5558;42.702;23.178;2023-11-21T10:07:20;93272.13;;;8.76;100.00
11011;BME280;5558;42.702;23.178;2023-11-21T10:09:47;93274.50;;;8.82;100.00
11011;BME280;5558;42.702;23.178;2023-11-21T10:12:15;93208.53;;;8.47;100.00
11011;BME280;5558;42.702;23.178;2023-11-21T10:14:43;93257.88;;;9.07;100.00
11011;BME280;5558;42.702;23.178;2023-11-21T10:17:12;93252.88;;;8.95;100.00
11011;BME280;5558;42.702;23.178;2023-11-21T10:19:42;93247.59;;;8.90;100.00
11011;BME280;5558;42.702;23.178;2023-11-21T10:22:10;93244.16;;;8.95;100.00
11011;BME280;5558;42.702;23.178;2023-11-21T10:24:38;93244.16;;;8.75;100.00
11011;BME280;5558;42.702;23.178;2023-11-21T10:27:05;93254.97;;;9.03;100.00
11011;BME280;5558;42.702;23.178;2023-11-21T10:29:33;93250.75;;;9.32;100.00
11011;BME280;5558;42.702;23.178;2023-11-21T10:32:02;93216.41;;;9.32;100.00
11011;BME280;5558;42.702;23.178;2023-11-21T10:34:29;93245.41;;;9.52;100.00
11011;BME280;5558;42.702;23.178;2023-11-21T10:36:56;93253.06;;;9.69;100.00
11011;BME280;5558;42.702;23.178;2023-11-21T10:39:24;93245.38;;;9.82;100.00
11011;BME280;5558;42.702;23.178;2023-11-21T10:41:55;93247.16;;;9.97;100.00
11011;BME280;5558;42.702;23.178;2023-11-21T10:44:22;93244.75;;;10.11;100.00
11011;BME280;5558;42.702;23.178;2023-11-21T10:46:50;93214.13;;;9.89;100.00
11011;BME280;5558;42.702;23.178;2023-11-21T10:49:17;93238.38;;;10.07;100.00
11011;BME280;5558;42.702;23.178;2023-11-21T10:51:45;93238.94;;;9.99;100.00
11011;BME280;5558;42.702;23.178;2023-11-21T10:54:17;93229.84;;;9.56;100.00
11011;BME280;5558;42.702;23.178;2023-11-21T10:56:45;93221.97;;;9.31;100.00
11011;BME280;5558;42.702;23.178;2023-11-21T10:59:14;93218.25;;;9.27;100.00
11011;BME280;5558;42.702;23.178;2023-11-21T11:01:42;93220.38;;;9.45;100.00
11011;BME280;5558;42.702;23.178;2023-11-21T11:04:11;93212.75;;;9.28;100.00
11011;BME280;5558;42.702;23.178;2023-11-21T11:06:42;93220.94;;;9.32;100.00
11011;BME280;5558;42.702;23.178;2023-11-21T11:09:10;93204.84;;;9.23;100.00
11011;BME280;5558;42.702;23.178;2023-11-21T11:11:39;93200.56;;;9.27;100.00
11011;BME280;5558;42.702;23.178;2023-11-21T11:14:07;93195.28;;;9.37;100.00
11011;BME280;5558;42.702;23.178;2023-11-21T11:16:39;93195.88;;;9.04;100.00
11011;BME280;5558;42.702;23.178;2023-11-21T11:19:06;93177.34;;;9.24;100.00
11011;BME280;5558;42.702;23.178;2023-11-21T11:21:44;93189.44;;;9.40;100.00
11011;BME280;5558;42.702;23.178;2023-11-21T11:24:24;93184.25;;;9.05;100.00
11011;BME280;5558;42.702;23.178;2023-11-21T11:26:58;93175.78;;;9.03;100.00
11011;BME280;5558;42.702;23.178;2023-11-21T11:29:35;93173.69;;;9.00;100.00
11011;BME280;5558;42.702;23.178;2023-11-21T11:32:15;93174.22;;;9.07;100.00
11011;BME280;5558;42.702;23.178;2023-11-21T11:34:50;93182.41;;;9.06;100.00
11011;BME280;5558;42.702;23.178;2023-11-21T11:37:20;93182.94;;;9.13;100.00
11011;BME280;5558;42.702;23.178;2023-11-21T11:39:49;93183.97;;;9.07;100.00
11011;BME280;5558;42.702;23.178;2023-11-21T11:42:17;93192.13;;;9.25;100.00
11011;BME280;5558;42.702;23.178;2023-11-21T11:44:51;93199.56;;;9.18;100.00
11011;BME280;5558;42.702;23.178;2023-11-21T11:47:23;93190.28;;;9.31;100.00
11011;BME280;5558;42.702;23.178;2023-11-21T11:50:01;93184.78;;;9.02;100.00
11011;BME280;5558;42.702;23.178;2023-11-21T11:52:40;93170.81;;;8.67;100.00
11011;BME280;5558;42.702;23.178;2023-11-21T11:55:09;93178.72;;;8.72;100.00
11011;BME280;5558;42.702;23.178;2023-11-21T11:57:40;93191.66;;;8.68;100.00
11011;BME280;5558;42.702;23.178;2023-11-21T12:00:15;93188.50;;;8.66;100.00
11011;BME280;5558;42.702;23.178;2023-11-21T12:02:46;93177.66;;;8.47;100.00
11011;BME280;5558;42.702;23.178;2023-11-21T12:05:14;93172.13;;;8.49;100.00
11011;BME280;5558;42.702;23.178;2023-11-21T12:07:46;93172.66;;;8.46;100.00
11011;BME280;5558;42.702;23.178;2023-11-21T12:10:14;93170.81;;;8.41;100.00
11011;BME280;5558;42.702;23.178;2023-11-21T12:12:44;93171.34;;;8.33;100.00
11011;BME280;5558;42.702;23.178;2023-11-21T12:15:12;93166.84;;;8.44;100.00
11011;BME280;5558;42.702;23.178;2023-11-21T12:17:40;93164.22;;;8.34;100.00
11011;BME280;5558;42.702;23.178;2023-11-21T12:20:11;93156.84;;;8.31;100.00
11011;BME280;5558;42.702;23.178;2023-11-21T12:22:43;93155.00;;;8.26;100.00
11011;BME280;5558;42.702;23.178;2023-11-21T12:25:10;93156.78;;;8.16;100.00
11011;BME280;5558;42.702;23.178;2023-11-21T12:27:42;93167.59;;;8.14;100.00
11011;BME280;5558;42.702;23.178;2023-11-21T12:30:10;93174.75;;;8.24;100.00
11011;BME280;5558;42.702;23.178;2023-11-21T12:32:39;93155.47;;;8.13;100.00
11011;BME280;5558;42.702;23.178;2023-11-21T12:35:07;93158.38;;;8.22;100.00
11011;BME280;5558;42.702;23.178;2023-11-21T12:37:36;93157.56;;;8.11;100.00
11011;BME280;5558;42.702;23.178;2023-11-21T12:40:06;93155.22;;;8.15;100.00
11011;BME280;5558;42.702;23.178;2023-11-21T12:42:33;93151.19;;;7.82;100.00
11011;BME280;5558;42.702;23.178;2023-11-21T12:45:08;93142.91;;;7.49;100.00
11011;BME280;5558;42.702;23.178;2023-11-21T12:47:40;93129.41;;;7.30;100.00
11011;BME280;5558;42.702;23.178;2023-11-21T12:50:08;93138.28;;;7.19;100.00
11011;BME280;5558;42.702;23.178;2023-11-21T12:52:41;93064.91;;;6.66;100.00
11011;BME280;5558;42.702;23.178;2023-11-21T12:55:09;93120.75;;;6.83;100.00
11011;BME280;5558;42.702;23.178;2023-11-21T12:57:42;93125.88;;;7.04;100.00
11011;BME280;5558;42.702;23.178;2023-11-21T13:00:10;93128.50;;;7.04;100.00
11011;BME280;5558;42.702;23.178;2023-11-21T13:02:51;93098.53;;;7.10;100.00
11011;BME280;5558;42.702;23.178;2023-11-21T13:05:26;93125.38;;;7.12;100.00